Time;durP1;ratioP1;P1;durP2;ratioP2;P2;SDS_P1;SDS_P2;PMS_P1;PMS_P2;Temp;Humidity;BMP_temperature;BMP_pressure;BME280_temperature;BME280_humidity;BME280_pressure;Samples;Min_cycle;Max_cycle;Signal;HPM_P1;HPM_P2
2022/06/24 00:00:04;;;;;;;0.70;0.50;;;;;;;28.08;49.35;98785.72;5131122;27;20087;-61
2022/06/24 00:02:30;;;;;;;0.88;0.68;;;;;;;28.08;49.29;98785.72;5121897;28;20050;-63
2022/06/24 00:04:57;;;;;;;0.60;0.50;;;;;;;28.08;49.36;98783.72;5125187;27;20467;-59
2022/06/24 00:07:22;;;;;;;1.00;0.50;;;;;;;28.08;49.24;98794.94;5125997;28;20039;-56
2022/06/24 00:09:48;;;;;;;0.47;0.40;;;;;;;28.06;49.12;98788.16;5120309;28;20059;-56
2022/06/24 00:12:19;;;;;;;1.27;0.60;;;;;;;28.07;49.26;98796.16;5121813;28;20576;-56
2022/06/24 00:14:55;;;;;;;0.70;0.50;;;;;;;28.07;49.17;98789.75;5124159;28;20495;-57
2022/06/24 00:17:21;;;;;;;0.80;0.50;;;;;;;28.07;49.10;98784.13;5124711;27;20047;-59
2022/06/24 00:19:57;;;;;;;1.08;0.63;;;;;;;28.07;49.19;98784.13;5129139;27;20168;-56
2022/06/24 00:22:23;;;;;;;1.33;0.70;;;;;;;28.08;49.18;98780.09;5127430;27;20131;-56
2022/06/24 00:25:05;;;;;;;1.08;0.60;;;;;;;28.07;49.19;98778.50;5119623;28;20437;-57
2022/06/24 00:27:30;;;;;;;0.88;0.60;;;;;;;28.06;49.11;98783.34;5102695;27;20126;-57
2022/06/24 00:29:55;;;;;;;1.13;0.50;;;;;;;28.06;49.14;98783.34;5103602;28;20460;-57
2022/06/24 00:32:32;;;;;;;1.30;0.70;;;;;;;28.04;49.16;98785.81;5103368;28;20052;-56
2022/06/24 00:35:17;;;;;;;1.20;0.68;;;;;;;28.05;49.18;98778.94;5105026;28;20043;-57
2022/06/24 00:37:45;;;;;;;0.95;0.55;;;;;;;28.05;49.03;98778.16;5108199;28;20407;-56
2022/06/24 00:40:10;;;;;;;0.60;0.50;;;;;;;28.04;49.12;98785.81;5102165;28;20044;-56
2022/06/24 00:42:44;;;;;;;1.10;0.70;;;;;;;28.05;49.23;98790.19;5100740;28;20185;-57
2022/06/24 00:45:34;;;;;;;0.95;0.60;;;;;;;28.05;49.09;98780.97;5105027;28;20143;-56
2022/06/24 00:48:06;;;;;;;0.60;0.50;;;;;;;28.06;49.14;98776.94;5126708;27;20515;-56
2022/06/24 00:50:32;;;;;;;0.93;0.60;;;;;;;28.06;49.09;98782.56;5106576;27;20031;-56
2022/06/24 00:53:00;;;;;;;0.63;0.50;;;;;;;28.04;49.16;98790.63;5124786;27;20031;-56
2022/06/24 00:55:32;;;;;;;0.70;0.50;;;;;;;28.05;48.99;98786.59;5127011;27;20046;-56
2022/06/24 00:58:00;;;;;;;0.80;0.47;;;;;;;28.05;48.88;98780.97;5121445;28;20031;-56
2022/06/24 01:00:28;;;;;;;1.27;0.60;;;;;;;28.06;49.11;98780.53;5126087;27;20068;-56
2022/06/24 01:03:02;;;;;;;0.90;0.57;;;;;;;28.06;49.00;98768.50;5125647;28;20427;-56
2022/06/24 01:05:29;;;;;;;0.60;0.47;;;;;;;28.06;48.98;98768.50;5122369;28;20046;-56
2022/06/24 01:07:55;;;;;;;0.80;0.50;;;;;;;28.06;48.98;98760.06;5129306;28;20039;-56
2022/06/24 01:10:22;;;;;;;1.10;0.65;;;;;;;28.05;48.88;98761.28;5131823;27;20040;-56
2022/06/24 01:12:48;;;;;;;0.80;0.60;;;;;;;28.05;49.01;98747.22;5099475;28;20027;-57
2022/06/24 01:15:17;;;;;;;0.73;0.50;;;;;;;28.04;48.95;98751.28;5106534;28;20040;-57
2022/06/24 01:17:43;;;;;;;0.50;0.40;;;;;;;28.03;48.81;98761.75;5106286;28;20036;-56
2022/06/24 01:20:10;;;;;;;0.70;0.50;;;;;;;28.03;48.98;98755.31;5101881;28;20059;-56
2022/06/24 01:22:36;;;;;;;0.93;0.60;;;;;;;28.04;48.95;98757.69;5105119;27;20050;-56
2022/06/24 01:25:02;;;;;;;0.68;0.50;;;;;;;28.01;48.96;98758.59;5127114;27;20043;-56
2022/06/24 01:27:27;;;;;;;0.60;0.50;;;;;;;28.02;48.89;98760.16;5109238;28;20058;-56
2022/06/24 01:29:53;;;;;;;1.60;0.68;;;;;;;28.03;48.87;98755.31;5108098;28;20043;-57
2022/06/24 01:32:18;;;;;;;0.75;0.55;;;;;;;28.04;48.79;98762.53;5114887;28;20422;-56
2022/06/24 01:34:44;;;;;;;1.40;0.60;;;;;;;28.05;48.79;98752.84;5129600;27;20467;-56
2022/06/24 01:37:10;;;;;;;0.57;0.50;;;;;;;28.06;48.67;98748.81;5125639;28;20463;-57
2022/06/24 01:39:35;;;;;;;1.27;0.70;;;;;;;28.06;48.63;98734.75;5127105;27;20475;-56
2022/06/24 01:42:01;;;;;;;1.15;0.60;;;;;;;28.06;48.71;98732.72;5129130;28;20070;-56
2022/06/24 01:44:26;;;;;;;1.05;0.60;;;;;;;28.05;48.75;98731.16;5125368;27;20050;-56
2022/06/24 01:46:52;;;;;;;1.63;0.63;;;;;;;28.05;48.94;98724.75;5119388;28;20039;-56
2022/06/24 01:49:17;;;;;;;1.27;0.52;;;;;;;28.05;48.86;98719.13;5128358;27;20483;-56
2022/06/24 01:51:47;;;;;;;1.05;0.55;;;;;;;28.03;48.85;98719.56;5125618;28;20058;-56
2022/06/24 01:54:12;;;;;;;0.88;0.60;;;;;;;28.03;48.88;98725.19;5124887;28;20051;-56
2022/06/24 01:56:38;;;;;;;1.05;0.73;;;;;;;28.04;48.89;98728.78;5125609;27;20413;-56
2022/06/24 01:59:03;;;;;;;0.65;0.50;;;;;;;28.02;48.94;98709.56;5127517;27;20383;-60
2022/06/24 02:01:29;;;;;;;1.65;0.52;;;;;;;28.03;49.00;98696.28;5133944;27;20407;-60
2022/06/24 02:03:54;;;;;;;1.10;0.50;;;;;;;28.04;48.77;98695.06;5115148;28;20510;-60
2022/06/24 02:06:20;;;;;;;0.85;0.50;;;;;;;28.05;48.91;98691.00;5127951;28;20426;-60
2022/06/24 02:08:45;;;;;;;1.02;0.57;;;;;;;28.03;48.85;98687.84;5125106;27;20126;-60
2022/06/24 02:13:59;;;;;;;0.70;0.50;;;;;;;28.04;48.86;98689.44;5105025;28;20092;-60
2022/06/24 02:16:26;;;;;;;1.00;0.63;;;;;;;28.02;48.81;98695.50;5105888;28;20046;-61
2022/06/24 02:18:53;;;;;;;0.60;0.45;;;;;;;28.01;48.81;98702.34;5099903;28;20453;-60
2022/06/24 02:21:21;;;;;;;1.13;0.50;;;;;;;28.02;48.82;98706.75;5105466;28;20035;-60
2022/06/24 02:23:46;;;;;;;0.75;0.50;;;;;;;28.02;48.95;98708.75;5102426;28;20104;-60
2022/06/24 02:26:12;;;;;;;1.52;0.50;;;;;;;28.03;49.06;98707.53;5105715;28;20063;-56
2022/06/24 02:28:37;;;;;;;0.77;0.60;;;;;;;28.04;48.82;98709.09;5104862;28;20034;-56
2022/06/24 02:31:03;;;;;;;0.70;0.52;;;;;;;28.02;48.83;98706.75;5107822;28;20040;-56
2022/06/24 02:33:29;;;;;;;2.88;0.60;;;;;;;28.02;49.02;98703.94;5100993;28;20032;-56
2022/06/24 02:35:55;;;;;;;1.45;0.60;;;;;;;28.02;48.97;98706.75;5098565;28;20126;-56
2022/06/24 02:38:21;;;;;;;0.93;0.60;;;;;;;28.02;48.83;98689.09;5104191;28;20046;-57
2022/06/24 02:40:50;;;;;;;1.13;0.60;;;;;;;28.01;48.80;98674.25;5106292;28;20047;-60
2022/06/24 02:43:28;;;;;;;0.70;0.60;;;;;;;28.00;48.92;98672.63;5107665;28;20109;-60
2022/06/24 02:45:57;;;;;;;1.73;0.57;;;;;;;28.00;48.87;98674.66;5104624;28;20052;-60
2022/06/24 02:48:23;;;;;;;0.60;0.50;;;;;;;28.01;48.88;98674.25;5107628;28;20384;-60
2022/06/24 02:50:53;;;;;;;0.95;0.63;;;;;;;28.01;48.89;98676.28;5103129;28;20100;-60
2022/06/24 02:53:20;;;;;;;0.73;0.50;;;;;;;28.01;48.97;98681.88;5100389;28;20050;-60
2022/06/24 02:55:48;;;;;;;0.65;0.50;;;;;;;28.01;48.80;98690.31;5103033;28;20027;-60
2022/06/24 02:58:14;;;;;;;1.02;0.57;;;;;;;28.01;48.80;98685.50;5106543;28;20048;-60
2022/06/24 03:00:41;;;;;;;0.75;0.60;;;;;;;28.01;48.97;98685.50;5105570;28;20158;-60
2022/06/24 03:03:07;;;;;;;1.05;0.60;;;;;;;28.02;48.91;98677.84;5106095;28;20048;-60
2022/06/24 03:05:33;;;;;;;0.73;0.55;;;;;;;28.00;48.81;98667.00;5103993;28;20455;-60
2022/06/24 03:07:58;;;;;;;0.88;0.57;;;;;;;28.01;49.04;98665.81;5107412;28;20051;-60
2022/06/24 03:10:24;;;;;;;3.72;0.50;;;;;;;28.03;49.00;98671.00;5107372;28;20032;-60
2022/06/24 03:12:50;;;;;;;0.73;0.55;;;;;;;28.02;49.11;98664.56;5104445;28;20051;-60
2022/06/24 03:15:15;;;;;;;0.43;0.40;;;;;;;28.00;49.06;98666.22;5104485;28;20147;-60
2022/06/24 03:17:41;;;;;;;0.60;0.40;;;;;;;28.01;49.12;98667.84;5102629;28;20047;-60
2022/06/24 03:20:08;;;;;;;0.95;0.50;;;;;;;27.99;49.11;98662.63;5107437;28;20384;-60
2022/06/24 03:22:34;;;;;;;1.13;0.70;;;;;;;27.96;49.25;98669.16;5099128;28;20415;-60
2022/06/24 03:25:00;;;;;;;0.43;0.40;;;;;;;27.98;49.18;98681.53;5108955;28;20044;-60
2022/06/24 03:27:25;;;;;;;2.55;0.52;;;;;;;28.01;49.03;98687.50;5099204;28;20075;-56
2022/06/24 03:29:51;;;;;;;1.58;0.60;;;;;;;28.01;49.06;98679.09;5093252;28;20036;-57
2022/06/24 03:32:16;;;;;;;1.02;0.50;;;;;;;28.01;49.20;98673.47;5100924;28;20122;-57
2022/06/24 03:34:42;;;;;;;1.45;0.63;;;;;;;28.00;49.09;98683.09;5096868;28;20101;-56
2022/06/24 03:37:07;;;;;;;0.60;0.55;;;;;;;27.98;48.85;98681.53;5104448;28;20453;-56
2022/06/24 03:39:33;;;;;;;0.88;0.50;;;;;;;27.98;49.32;98704.00;5108556;28;20038;-56
2022/06/24 03:41:58;;;;;;;0.55;0.45;;;;;;;28.01;49.08;98713.59;5100232;28;20449;-57
2022/06/24 03:44:24;;;;;;;0.73;0.60;;;;;;;28.02;49.27;98714.38;5104367;28;20478;-57
2022/06/24 03:46:49;;;;;;;1.25;0.70;;;;;;;28.00;49.24;98711.22;5105757;28;20059;-56
2022/06/24 03:49:15;;;;;;;0.93;0.52;;;;;;;28.00;49.38;98712.00;5101263;28;20043;-56
2022/06/24 03:51:41;;;;;;;0.80;0.57;;;;;;;28.01;49.29;98702.34;5098496;28;20126;-57
2022/06/24 03:54:07;;;;;;;1.02;0.50;;;;;;;28.00;49.38;98703.56;5106312;28;20075;-56
2022/06/24 03:56:32;;;;;;;1.02;0.52;;;;;;;27.95;49.44;98698.50;5106835;28;20032;-57
2022/06/24 03:58:58;;;;;;;0.88;0.60;;;;;;;28.00;49.55;98699.97;5093883;28;20051;-56
2022/06/24 04:01:23;;;;;;;0.65;0.40;;;;;;;28.00;49.42;98688.72;5102944;28;20051;-56
2022/06/24 04:03:48;;;;;;;0.90;0.50;;;;;;;27.96;49.49;98684.00;5107575;28;20040;-57
2022/06/24 04:06:14;;;;;;;1.08;0.60;;;;;;;28.00;49.55;98683.09;5096895;28;20054;-56
2022/06/24 04:08:39;;;;;;;0.70;0.50;;;;;;;27.99;49.67;98679.50;5105276;28;20047;-57
2022/06/24 04:11:12;;;;;;;0.77;0.60;;;;;;;27.99;49.69;98682.31;5109337;28;20035;-57
2022/06/24 04:13:38;;;;;;;1.02;0.50;;;;;;;28.01;49.71;98679.88;5102086;28;20042;-56
2022/06/24 04:16:04;;;;;;;0.82;0.57;;;;;;;28.00;49.58;98669.81;5101515;28;20427;-57
2022/06/24 04:18:30;;;;;;;1.05;0.60;;;;;;;28.00;49.61;98671.84;5100066;28;20097;-56
2022/06/24 04:20:55;;;;;;;0.70;0.50;;;;;;;28.00;49.67;98671.84;5106382;28;20048;-56
2022/06/24 04:23:21;;;;;;;0.60;0.40;;;;;;;27.99;49.79;98671.06;5100336;28;20048;-56
2022/06/24 04:25:47;;;;;;;0.70;0.55;;;;;;;27.97;49.87;98663.09;5106238;28;20135;-56
2022/06/24 04:28:12;;;;;;;1.33;0.60;;;;;;;27.97;50.01;98646.22;5104313;28;20052;-57
2022/06/24 04:30:38;;;;;;;1.67;0.50;;;;;;;27.98;49.92;98644.19;5101709;28;20403;-56
2022/06/24 04:33:03;;;;;;;0.73;0.50;;;;;;;27.98;49.79;98636.53;5104373;28;20048;-56
2022/06/24 04:35:29;;;;;;;0.40;0.32;;;;;;;27.97;49.81;98637.78;5102271;28;20031;-56
2022/06/24 04:37:54;;;;;;;0.75;0.55;;;;;;;27.97;49.86;98637.78;5100336;28;20415;-57
2022/06/24 04:40:19;;;;;;;0.50;0.50;;;;;;;27.98;49.76;98639.34;5097126;28;20092;-56
2022/06/24 04:42:46;;;;;;;0.57;0.40;;;;;;;27.97;49.79;98628.56;5100935;28;20067;-56
2022/06/24 04:45:11;;;;;;;0.90;0.50;;;;;;;27.97;49.81;98618.09;5107353;28;20419;-56
2022/06/24 04:47:37;;;;;;;1.17;0.50;;;;;;;27.96;49.79;98610.91;5103379;28;20036;-56
2022/06/24 04:50:04;;;;;;;0.93;0.50;;;;;;;27.94;49.97;98612.59;5104306;28;20100;-57
2022/06/24 04:52:31;;;;;;;0.50;0.40;;;;;;;27.96;50.00;98619.34;5106929;28;20054;-56
2022/06/24 04:54:57;;;;;;;0.93;0.60;;;;;;;27.96;49.96;98621.38;5107920;28;20499;-56
2022/06/24 04:57:22;;;;;;;0.80;0.50;;;;;;;27.94;50.06;98616.19;5109128;28;20042;-56
2022/06/24 04:59:47;;;;;;;0.45;0.35;;;;;;;27.95;49.92;98623.38;5104544;28;20391;-56
2022/06/24 05:02:13;;;;;;;0.88;0.52;;;;;;;27.94;49.95;98630.25;5114131;28;20522;-56
2022/06/24 05:04:38;;;;;;;0.70;0.55;;;;;;;27.94;49.97;98632.28;5107283;28;20408;-56
2022/06/24 05:07:06;;;;;;;0.90;0.60;;;;;;;27.95;49.97;98637.44;5104637;28;20044;-56
2022/06/24 05:09:31;;;;;;;0.80;0.50;;;;;;;27.94;50.11;98629.47;5100900;28;20562;-56
2022/06/24 05:11:58;;;;;;;0.73;0.60;;;;;;;27.94;50.12;98627.44;5079416;28;20035;-56
2022/06/24 05:14:24;;;;;;;1.25;0.55;;;;;;;27.93;50.00;98620.25;5107426;28;20043;-56
2022/06/24 05:16:50;;;;;;;1.05;0.55;;;;;;;27.95;50.13;98626.19;5109382;28;20063;-56
2022/06/24 05:19:15;;;;;;;0.40;0.40;;;;;;;27.95;50.18;98634.63;5107791;28;20055;-56
2022/06/24 05:21:41;;;;;;;0.82;0.60;;;;;;;27.96;50.28;98627.78;5098961;28;20044;-56
2022/06/24 05:24:06;;;;;;;0.85;0.50;;;;;;;27.97;50.42;98628.56;5083067;28;20036;-57
2022/06/24 05:26:32;;;;;;;8.38;0.77;;;;;;;27.96;50.74;98619.34;5108763;28;20571;-57
2022/06/24 05:28:58;;;;;;;9.95;1.10;;;;;;;27.97;50.65;98615.28;5100493;28;20083;-57
2022/06/24 05:31:23;;;;;;;8.40;0.90;;;;;;;27.98;50.80;98619.69;5109601;28;20031;-57
2022/06/24 05:33:48;;;;;;;15.25;1.27;;;;;;;27.99;50.73;98614.84;5070533;28;20052;-56
2022/06/24 05:36:14;;;;;;;8.25;1.20;;;;;;;28.00;50.82;98610.00;5104372;28;20051;-57
2022/06/24 05:38:39;;;;;;;9.48;0.93;;;;;;;27.99;51.00;98609.22;5108719;28;20050;-60
2022/06/24 05:41:05;;;;;;;7.05;1.27;;;;;;;28.00;51.01;98607.19;5100286;28;20504;-60
2022/06/24 05:43:31;;;;;;;5.05;0.88;;;;;;;28.00;51.07;98604.38;5108354;28;20435;-60
2022/06/24 05:45:56;;;;;;;9.35;1.23;;;;;;;27.97;51.16;98606.84;5111958;28;20046;-60
2022/06/24 05:48:24;;;;;;;4.43;0.80;;;;;;;28.00;51.21;98612.81;5100784;28;20031;-60
2022/06/24 05:50:50;;;;;;;1.65;0.68;;;;;;;28.00;51.17;98610.00;5108295;28;20532;-60
2022/06/24 05:56:00;;;;;;;5.38;1.25;;;;;;;27.98;51.36;98602.81;5105042;28;20054;-60
2022/06/24 05:58:30;;;;;;;3.95;0.90;;;;;;;27.96;51.34;98599.66;5102158;28;20094;-60
2022/06/24 06:00:56;;;;;;;3.42;0.88;;;;;;;27.98;51.24;98607.66;5102366;28;20499;-60
2022/06/24 06:03:25;;;;;;;5.80;0.80;;;;;;;27.99;52.33;98603.59;5102993;28;20040;-60
2022/06/24 06:05:51;;;;;;;1.38;0.70;;;;;;;27.92;53.26;98593.34;5103229;28;20044;-60
2022/06/24 06:08:17;;;;;;;4.20;0.80;;;;;;;27.83;53.55;98601.63;5109922;28;20058;-60
2022/06/24 06:10:43;;;;;;;4.22;0.73;;;;;;;27.77;54.12;98603.38;5105244;28;20035;-60
2022/06/24 06:13:10;;;;;;;4.38;0.80;;;;;;;27.73;54.28;98594.28;5108498;28;20535;-60
2022/06/24 06:15:36;;;;;;;1.40;0.60;;;;;;;27.70;54.36;98586.72;5109351;28;20131;-61
2022/06/24 06:18:01;;;;;;;3.28;1.10;;;;;;;27.67;54.57;98579.97;5105052;28;20075;-60
2022/06/24 06:20:28;;;;;;;2.28;0.70;;;;;;;27.64;54.47;98588.44;5108052;28;20402;-60
2022/06/24 06:22:53;;;;;;;3.83;0.88;;;;;;;27.63;54.44;98582.03;5097828;28;20086;-60
2022/06/24 06:25:19;;;;;;;3.10;0.80;;;;;;;27.64;54.35;98582.84;5102668;28;20574;-60
2022/06/24 06:27:44;;;;;;;2.38;0.65;;;;;;;27.66;54.28;98572.75;5107372;28;20088;-60
2022/06/24 06:30:11;;;;;;;2.42;0.90;;;;;;;27.70;54.13;98564.25;5099995;28;20075;-61
2022/06/24 06:32:36;;;;;;;0.93;0.70;;;;;;;27.67;54.00;98571.53;5104129;28;20075;-60
2022/06/24 06:35:03;;;;;;;1.70;0.60;;;;;;;27.67;53.90;98579.16;5100752;28;20090;-60
2022/06/24 06:37:29;;;;;;;2.97;0.80;;;;;;;27.68;53.90;98572.31;5108869;28;20047;-60
2022/06/24 06:39:54;;;;;;;1.15;0.70;;;;;;;27.72;53.75;98573.03;5101964;28;20048;-60
2022/06/24 06:42:19;;;;;;;2.17;0.80;;;;;;;27.76;53.49;98575.75;5099543;28;20035;-60
2022/06/24 06:44:45;;;;;;;1.67;0.70;;;;;;;27.77;53.68;98577.31;5101797;28;20092;-61
2022/06/24 06:47:11;;;;;;;2.63;0.88;;;;;;;27.77;53.49;98580.91;5098950;28;20040;-61
2022/06/24 06:49:36;;;;;;;4.57;0.70;;;;;;;27.77;53.43;98568.88;5105802;28;20051;-61
2022/06/24 06:52:02;;;;;;;1.20;0.65;;;;;;;27.81;53.12;98567.56;5105290;28;20506;-61
2022/06/24 06:54:29;;;;;;;1.65;0.80;;;;;;;27.72;51.44;98560.97;5105296;28;20031;-61
2022/06/24 06:56:56;;;;;;;6.93;1.38;;;;;;;27.39;52.83;98556.19;5098197;28;20055;-61
2022/06/24 06:59:21;;;;;;;8.02;2.53;;;;;;;27.24;54.58;98557.00;5098671;28;20085;-60
2022/06/24 07:01:46;;;;;;;6.63;2.30;;;;;;;27.12;55.16;98559.28;5105307;28;20581;-60
2022/06/24 07:04:12;;;;;;;9.32;2.25;;;;;;;27.08;55.26;98552.19;5103282;28;20035;-60
2022/06/24 07:06:38;;;;;;;12.65;4.30;;;;;;;27.02;55.20;98559.53;5108100;28;20126;-60
2022/06/24 07:09:03;;;;;;;11.55;4.35;;;;;;;27.02;54.90;98553.91;5101551;28;20063;-60
2022/06/24 07:11:29;;;;;;;13.73;6.40;;;;;;;27.01;54.91;98563.56;5103665;28;20130;-60
2022/06/24 07:13:57;;;;;;;10.60;5.20;;;;;;;27.00;55.17;98553.53;5102252;28;20506;-60
2022/06/24 07:16:23;;;;;;;10.80;4.30;;;;;;;27.00;55.08;98547.91;5099489;28;20205;-60
2022/06/24 07:18:48;;;;;;;12.13;4.88;;;;;;;26.98;54.88;98547.56;5101562;28;20050;-60
2022/06/24 07:21:14;;;;;;;12.63;2.92;;;;;;;26.97;54.67;98546.00;5107924;28;20092;-60
2022/06/24 07:23:40;;;;;;;13.65;3.33;;;;;;;26.94;54.93;98530.06;5106839;28;20075;-60
2022/06/24 07:26:06;;;;;;;10.68;3.00;;;;;;;26.95;54.88;98529.59;5106667;28;20039;-60
2022/06/24 07:28:36;;;;;;;9.65;2.58;;;;;;;26.94;55.06;98532.84;5102535;28;20097;-59
2022/06/24 07:31:12;;;;;;;11.63;3.20;;;;;;;26.97;54.74;98527.16;5102311;28;20086;-60
2022/06/24 07:33:38;;;;;;;8.30;2.67;;;;;;;26.98;55.14;98536.34;5104134;28;20050;-60
2022/06/24 07:36:03;;;;;;;10.88;2.35;;;;;;;26.91;55.30;98517.66;5103877;28;20048;-60
2022/06/24 07:38:29;;;;;;;8.40;2.53;;;;;;;26.89;55.45;98523.72;5101762;28;20043;-66
2022/06/24 07:40:55;;;;;;;9.98;2.40;;;;;;;26.93;55.84;98534.06;5103620;28;20056;-67
2022/06/24 07:43:21;;;;;;;10.75;2.60;;;;;;;26.93;55.93;98539.66;5102631;28;20403;-58
2022/06/24 07:45:50;;;;;;;12.63;2.97;;;;;;;26.94;55.57;98546.88;5101476;28;20035;-58
2022/06/24 07:48:16;;;;;;;4.82;1.77;;;;;;;26.97;55.70;98552.41;5103289;28;20136;-58
2022/06/24 07:50:41;;;;;;;13.18;2.38;;;;;;;27.03;55.17;98552.66;5097147;28;20126;-58
2022/06/24 07:53:07;;;;;;;5.20;1.80;;;;;;;26.97;53.46;98548.81;5104834;28;20044;-59
2022/06/24 07:58:16;;;;;;;4.90;1.73;;;;;;;26.82;55.67;98543.53;5101291;28;20054;-58
2022/06/24 08:00:41;;;;;;;15.07;6.85;;;;;;;26.76;56.81;98542.47;5092795;28;20040;-58
2022/06/24 08:03:07;;;;;;;37.45;26.77;;;;;;;26.78;56.51;98531.59;5104194;28;20051;-58
2022/06/24 08:05:32;;;;;;;38.72;27.65;;;;;;;26.82;56.81;98531.53;5102005;28;20415;-59
2022/06/24 08:07:58;;;;;;;35.72;23.02;;;;;;;26.90;56.47;98535.72;5099017;28;20036;-58
2022/06/24 08:10:23;;;;;;;21.90;16.90;;;;;;;26.96;55.21;98534.00;5099791;28;20075;-57
2022/06/24 08:12:49;;;;;;;22.20;16.13;;;;;;;26.98;55.52;98547.56;5101322;28;20048;-59
2022/06/24 08:15:16;;;;;;;24.70;14.82;;;;;;;26.86;54.99;98549.03;5096416;28;20097;-59
2022/06/24 08:17:42;;;;;;;20.75;14.23;;;;;;;26.80;56.50;98570.47;5095812;28;20155;-58
2022/06/24 08:20:08;;;;;;;19.90;12.57;;;;;;;26.81;56.61;98567.22;5095138;28;20042;-59
2022/06/24 08:22:33;;;;;;;15.43;10.52;;;;;;;26.88;56.36;98561.44;5088706;28;20035;-59
2022/06/24 08:24:59;;;;;;;13.27;9.48;;;;;;;26.97;56.09;98563.63;5092889;28;20031;-59
2022/06/24 08:27:24;;;;;;;10.13;8.05;;;;;;;27.01;55.77;98569.16;5098217;28;20039;-59
2022/06/24 08:29:49;;;;;;;11.48;8.48;;;;;;;27.08;55.42;98577.44;5099492;28;20043;-59
2022/06/24 08:32:15;;;;;;;9.90;7.30;;;;;;;27.00;53.52;98590.03;5101089;28;20035;-59
2022/06/24 08:34:40;;;;;;;7.85;5.97;;;;;;;26.88;55.26;98609.13;5100420;28;20055;-59
2022/06/24 08:37:06;;;;;;;7.68;5.25;;;;;;;26.85;56.00;98624.03;5104538;28;20050;-59
2022/06/24 08:39:31;;;;;;;6.38;4.95;;;;;;;26.86;56.10;98630.44;5106801;28;20055;-59
2022/06/24 08:41:58;;;;;;;6.35;4.15;;;;;;;26.92;56.16;98662.38;5103939;28;20063;-59
2022/06/24 08:44:24;;;;;;;6.88;4.10;;;;;;;26.96;55.66;98660.28;5099035;28;20052;-58
2022/06/24 08:46:51;;;;;;;7.47;4.15;;;;;;;27.01;55.64;98695.47;5104189;28;20047;-59
2022/06/24 08:49:16;;;;;;;5.97;3.50;;;;;;;27.06;55.14;98676.09;5099461;28;20109;-59
2022/06/24 08:51:42;;;;;;;6.43;3.50;;;;;;;27.12;54.88;98685.59;5101554;28;20043;-59
2022/06/24 08:54:09;;;;;;;6.45;3.83;;;;;;;27.07;54.03;98711.38;5100058;28;20139;-59
2022/06/24 08:56:35;;;;;;;4.30;3.20;;;;;;;26.95;54.41;98733.69;5102287;28;20044;-60
2022/06/24 08:59:01;;;;;;;4.00;2.80;;;;;;;26.95;54.77;98725.28;5099242;28;20036;-60
2022/06/24 09:01:26;;;;;;;3.63;2.47;;;;;;;26.96;54.58;98724.03;5103993;28;20046;-59
2022/06/24 09:03:52;;;;;;;4.43;2.38;;;;;;;27.00;54.25;98719.91;5102532;28;20088;-59
2022/06/24 09:06:18;;;;;;;4.18;2.58;;;;;;;27.09;54.05;98725.00;5104447;28;20507;-58
2022/06/24 09:08:51;;;;;;;3.17;2.17;;;;;;;27.05;52.85;98721.47;5106339;28;20200;-59
2022/06/24 09:11:17;;;;;;;3.22;1.95;;;;;;;26.91;53.36;98691.66;5092767;28;20044;-58
2022/06/24 09:13:48;;;;;;;3.58;2.10;;;;;;;26.87;53.99;98688.94;5100400;28;20051;-59
2022/06/24 09:16:17;;;;;;;3.53;1.80;;;;;;;26.87;54.04;98680.53;5100424;28;20048;-59
2022/06/24 09:18:57;;;;;;;3.10;1.70;;;;;;;26.94;53.90;98675.97;5097529;28;20047;-58
2022/06/24 09:21:25;;;;;;;2.70;1.52;;;;;;;27.01;53.17;98687.06;5104799;28;20138;-60
2022/06/24 09:23:53;;;;;;;3.95;1.70;;;;;;;26.91;52.09;98727.34;5100229;28;20135;-59
2022/06/24 09:26:29;;;;;;;2.17;1.35;;;;;;;26.85;53.00;98761.53;5098798;28;20051;-59
2022/06/24 09:28:58;;;;;;;2.22;1.30;;;;;;;26.86;53.22;98762.31;5096923;28;20371;-59
2022/06/24 09:31:25;;;;;;;2.05;1.20;;;;;;;26.92;53.10;98782.25;5092302;28;20054;-59
2022/06/24 09:33:51;;;;;;;2.38;1.35;;;;;;;26.96;52.93;98799.81;5103675;28;20104;-59
2022/06/24 09:36:17;;;;;;;1.90;1.10;;;;;;;27.02;52.69;98801.69;5105309;28;20038;-59
2022/06/24 09:39:04;;;;;;;1.52;0.90;;;;;;;27.07;52.24;98795.59;5101835;28;20043;-59
2022/06/24 09:41:41;;;;;;;1.95;1.00;;;;;;;27.08;51.56;98793.59;5102682;28;20051;-60
2022/06/24 09:44:06;;;;;;;1.70;1.00;;;;;;;26.96;50.73;98825.88;5101231;28;20123;-60
2022/06/24 09:46:32;;;;;;;1.33;0.80;;;;;;;26.84;51.87;98849.75;5099880;28;20625;-59
2022/06/24 09:49:03;;;;;;;1.30;0.80;;;;;;;26.84;52.54;98852.56;5097395;28;20104;-59
2022/06/24 09:51:29;;;;;;;3.03;0.80;;;;;;;26.91;52.67;98848.81;5098589;28;20460;-60
2022/06/24 09:53:55;;;;;;;1.40;0.80;;;;;;;26.99;52.41;98880.34;5099717;28;20043;-59
2022/06/24 09:56:21;;;;;;;1.52;0.75;;;;;;;27.04;52.49;98885.47;5102880;28;20082;-59
2022/06/24 10:01:37;;;;;;;1.58;0.95;;;;;;;26.81;52.39;98901.13;5059525;28;20043;-59
2022/06/24 10:04:05;;;;;;;1.25;0.70;;;;;;;26.80;52.90;98893.94;5100483;28;20048;-59
2022/06/24 10:06:35;;;;;;;2.90;0.60;;;;;;;26.80;52.69;98885.50;5099218;28;20065;-59
2022/06/24 10:09:04;;;;;;;0.82;0.50;;;;;;;26.84;52.59;98891.84;5100897;28;20579;-59
2022/06/24 10:11:36;;;;;;;4.18;0.80;;;;;;;26.93;52.82;98884.88;5107532;28;20051;-59
2022/06/24 10:14:03;;;;;;;1.57;0.67;;;;;;;26.94;51.46;98880.88;5106472;28;20047;-59
2022/06/24 10:16:28;;;;;;;1.23;0.60;;;;;;;26.83;51.97;98881.84;5104437;27;20124;-59
2022/06/24 10:18:55;;;;;;;0.93;0.43;;;;;;;26.79;52.80;98872.72;5109227;27;20083;-61
2022/06/24 10:21:21;;;;;;;1.88;0.68;;;;;;;26.78;53.00;98885.13;5100840;28;20055;-58
2022/06/24 10:23:47;;;;;;;0.70;0.50;;;;;;;26.85;52.62;98887.00;5108774;27;20093;-59
2022/06/24 10:26:22;;;;;;;0.85;0.30;;;;;;;26.88;52.39;98891.78;5106762;28;20036;-60
2022/06/24 10:28:59;;;;;;;0.55;0.32;;;;;;;26.96;52.56;98898.84;5098557;27;20112;-60
2022/06/24 10:31:52;;;;;;;1.23;0.60;;;;;;;26.96;51.39;98904.47;5097410;27;20044;-59
2022/06/24 10:34:26;;;;;;;0.40;0.40;;;;;;;26.79;52.41;98906.38;5100055;27;20052;-58
2022/06/24 10:37:12;;;;;;;0.77;0.50;;;;;;;26.76;52.96;98912.84;5103180;27;20499;-59
2022/06/24 10:39:47;;;;;;;1.10;0.55;;;;;;;26.78;53.09;98904.78;5104056;27;20488;-59
2022/06/24 10:42:20;;;;;;;0.80;0.57;;;;;;;26.86;52.86;98906.25;5096983;28;20055;-59
2022/06/24 10:44:54;;;;;;;0.90;0.50;;;;;;;26.92;52.88;98905.75;5101262;27;20050;-60
2022/06/24 10:47:28;;;;;;;0.70;0.47;;;;;;;26.98;52.12;98909.63;5106402;28;20414;-60
2022/06/24 10:49:54;;;;;;;0.88;0.40;;;;;;;26.89;51.86;98902.56;5111277;27;20043;-59
2022/06/24 10:52:41;;;;;;;0.60;0.40;;;;;;;26.83;52.57;98917.53;5104767;27;20043;-59
2022/06/24 10:55:28;;;;;;;0.88;0.30;;;;;;;26.85;52.75;98927.09;5100375;27;20048;-60
2022/06/24 10:58:14;;;;;;;0.20;0.20;;;;;;;26.91;52.52;98926.59;5105612;27;20043;-60
2022/06/24 11:00:48;;;;;;;0.63;0.40;;;;;;;27.00;52.44;98938.06;5120922;27;20050;-60
2022/06/24 11:03:16;;;;;;;0.40;0.30;;;;;;;27.00;52.07;98949.28;5126941;27;20122;-60
2022/06/24 11:05:45;;;;;;;2.22;0.20;;;;;;;27.02;52.10;98958.88;5108667;28;20043;-58
2022/06/24 11:08:21;;;;;;;0.50;0.40;;;;;;;27.06;51.95;98961.66;5121055;28;20042;-58
2022/06/24 11:10:48;;;;;;;0.40;0.28;;;;;;;27.02;51.00;98969.31;5124765;27;20054;-58
2022/06/24 11:13:14;;;;;;;0.43;0.30;;;;;;;26.86;51.70;98982.03;5124715;27;20039;-59
2022/06/24 11:15:59;;;;;;;7.22;0.50;;;;;;;26.79;52.33;98982.16;5118379;28;20070;-58
2022/06/24 11:18:33;;;;;;;0.40;0.30;;;;;;;26.83;52.29;98982.88;5110725;28;20040;-59
2022/06/24 11:21:04;;;;;;;0.80;0.40;;;;;;;26.92;51.98;98993.53;5096935;28;20040;-58
2022/06/24 11:23:32;;;;;;;1.33;0.20;;;;;;;26.94;52.09;98985.50;5103038;27;20055;-59
2022/06/24 11:26:14;;;;;;;0.82;0.30;;;;;;;26.98;51.93;98996.66;5100439;27;20055;-59
2022/06/24 11:28:42;;;;;;;0.45;0.40;;;;;;;27.01;51.91;98998.63;5103196;28;20050;-59
2022/06/24 11:31:19;;;;;;;2.45;0.45;;;;;;;27.00;51.43;99002.63;5101532;28;20071;-56
2022/06/24 11:33:47;;;;;;;1.88;0.65;;;;;;;27.00;51.55;98994.19;5107967;27;20035;-57
2022/06/24 11:36:14;;;;;;;1.33;0.60;;;;;;;27.01;51.19;98967.75;5109325;27;20729;-58
2022/06/24 11:38:48;;;;;;;2.33;0.40;;;;;;;26.95;51.64;98952.63;5109294;27;20047;-58
2022/06/24 11:41:27;;;;;;;3.03;0.63;;;;;;;26.93;52.11;98952.22;5101442;27;20154;-58
2022/06/24 11:43:53;;;;;;;1.60;0.70;;;;;;;26.94;52.39;98956.66;5112565;27;20043;-58